Time;durP1;ratioP1;P1;durP2;ratioP2;P2;SDS_P1;SDS_P2;PMS_P1;PMS_P2;Temp;Humidity;BMP_temperature;BMP_pressure;BME280_temperature;BME280_humidity;BME280_pressure;Samples;Min_cycle;Max_cycle;Signal;HPM_P1;HPM_P2
2022/05/07 00:01:32;;;;;;;4.07;3.25;;;18.10;57.60;;;;;;2271487;59;21545;-76
2022/05/07 00:03:59;;;;;;;5.70;3.35;;;18.10;57.50;;;;;;2270983;59;21067;-76
2022/05/07 00:06:26;;;;;;;3.70;3.10;;;18.10;57.50;;;;;;2270999;59;21059;-76
2022/05/07 00:08:54;;;;;;;5.50;2.90;;;18.00;57.50;;;;;;2270603;59;21146;-76
2022/05/07 00:11:21;;;;;;;3.40;2.92;;;18.10;57.50;;;;;;2501961;55;21043;-77
2022/05/07 00:13:49;;;;;;;5.82;3.42;;;18.00;57.50;;;;;;2501324;55;21119;-76
2022/05/07 00:19:02;;;;;;;3.90;3.10;;;18.00;57.50;;;;;;2271272;59;21015;-77
2022/05/07 00:21:30;;;;;;;6.22;3.95;;;18.00;57.50;;;;;;2502569;54;21583;-77
2022/05/07 00:23:57;;;;;;;5.35;4.07;;;18.00;57.50;;;;;;2270789;59;21117;-77
2022/05/07 00:26:24;;;;;;;7.07;3.33;;;17.90;57.50;;;;;;2270830;59;21051;-76
2022/05/07 00:28:52;;;;;;;5.97;3.55;;;17.90;57.70;;;;;;2501671;55;21047;-77
2022/05/07 00:31:19;;;;;;;4.68;3.67;;;17.90;57.70;;;;;;2502117;55;21146;-77
2022/05/07 00:33:46;;;;;;;5.20;3.60;;;17.80;57.70;;;;;;2271174;59;21541;-77
2022/05/07 00:36:13;;;;;;;5.78;3.70;;;17.80;57.80;;;;;;2271141;59;21070;-76
2022/05/07 00:38:41;;;;;;;4.53;3.45;;;17.80;58.10;;;;;;2502050;55;21082;-77
2022/05/07 00:41:08;;;;;;;5.62;3.15;;;17.80;58.10;;;;;;2269829;59;21055;-77
2022/05/07 00:43:35;;;;;;;4.50;3.42;;;17.70;58.10;;;;;;2270041;59;22286;-77
2022/05/07 00:46:04;;;;;;;3.45;3.15;;;17.70;58.20;;;;;;2270880;59;21565;-76
2022/05/07 00:48:32;;;;;;;4.37;3.72;;;17.70;58.20;;;;;;2270782;59;21063;-77
2022/05/07 00:53:47;;;;;;;5.57;3.45;;;17.60;58.20;;;;;;2271147;59;21042;-75
2022/05/07 00:56:14;;;;;;;4.05;3.65;;;17.60;58.20;;;;;;2270925;59;21480;-74
2022/05/07 00:58:41;;;;;;;5.10;3.78;;;17.50;58.30;;;;;;2501766;55;21597;-76
2022/05/07 01:01:09;;;;;;;6.90;4.32;;;17.50;58.30;;;;;;2271169;59;21592;-75
2022/05/07 01:03:37;;;;;;;6.90;4.00;;;17.50;58.20;;;;;;2270689;59;21079;-76
2022/05/07 01:06:04;;;;;;;8.82;4.78;;;17.40;58.30;;;;;;2270057;59;21050;-77
2022/05/07 01:08:33;;;;;;;6.05;4.50;;;17.40;58.30;;;;;;2270906;59;21059;-76
2022/05/07 01:11:01;;;;;;;7.00;6.03;;;17.40;58.30;;;;;;2501654;55;21103;-76
2022/05/07 01:13:29;;;;;;;7.82;5.53;;;17.30;58.20;;;;;;2270799;59;21047;-76
2022/05/07 01:15:57;;;;;;;8.98;5.85;;;17.30;58.20;;;;;;2270109;59;21142;-77
2022/05/07 01:18:25;;;;;;;11.05;6.35;;;17.30;58.20;;;;;;2271002;59;21126;-76
2022/05/07 01:20:55;;;;;;;8.20;5.87;;;17.20;58.20;;;;;;2501712;55;21206;-76
2022/05/07 01:23:22;;;;;;;8.38;5.68;;;17.20;58.40;;;;;;2500905;55;21051;-76
2022/05/07 01:25:50;;;;;;;13.35;7.78;;;17.20;58.50;;;;;;2501006;55;21059;-76
2022/05/07 01:28:17;;;;;;;9.73;6.80;;;17.10;58.40;;;;;;2270814;59;21067;-76
2022/05/07 01:30:44;;;;;;;11.40;7.65;;;17.10;58.40;;;;;;2270744;59;21632;-75
2022/05/07 01:33:11;;;;;;;11.32;7.45;;;17.10;58.40;;;;;;2270941;59;21055;-76
2022/05/07 01:35:39;;;;;;;15.25;8.48;;;17.10;58.40;;;;;;2270260;59;21137;-75
2022/05/07 01:38:06;;;;;;;15.30;9.07;;;17.10;58.60;;;;;;2501183;55;21122;-77
2022/05/07 01:40:33;;;;;;;13.35;8.27;;;17.00;58.60;;;;;;2270053;59;21058;-76
2022/05/07 01:43:01;;;;;;;12.88;8.45;;;17.00;58.80;;;;;;2271110;59;21202;-77
2022/05/07 01:45:28;;;;;;;13.95;8.60;;;17.00;59.00;;;;;;2270512;59;21127;-76
2022/05/07 01:50:43;;;;;;;14.93;7.22;;;16.90;59.10;;;;;;2501115;55;21174;-76
2022/05/07 01:53:12;;;;;;;21.17;11.93;;;16.90;59.20;;;;;;2501924;55;21593;-76
2022/05/07 01:55:39;;;;;;;18.92;10.95;;;16.80;59.30;;;;;;2270186;59;21055;-76
2022/05/07 01:58:07;;;;;;;18.35;11.48;;;16.80;59.50;;;;;;2269796;59;21066;-76
2022/05/07 02:00:35;;;;;;;21.37;12.98;;;16.80;59.80;;;;;;2271086;59;21122;-74
2022/05/07 02:03:02;;;;;;;21.33;13.27;;;16.70;60.10;;;;;;2271106;59;21558;-74
2022/05/07 02:05:30;;;;;;;24.95;13.20;;;16.70;60.50;;;;;;2270486;59;21598;-76
2022/05/07 02:07:57;;;;;;;25.58;14.38;;;16.70;60.50;;;;;;2270752;59;21055;-76
2022/05/07 02:10:25;;;;;;;28.40;13.70;;;16.70;60.80;;;;;;2271121;59;21063;-74
2022/05/07 02:12:53;;;;;;;24.60;14.15;;;16.60;60.70;;;;;;2270502;59;21150;-75
2022/05/07 02:15:20;;;;;;;30.67;16.50;;;16.70;60.80;;;;;;2269524;59;21127;-75
2022/05/07 02:17:48;;;;;;;27.58;15.27;;;16.60;60.90;;;;;;2271409;59;21569;-76
2022/05/07 02:20:15;;;;;;;24.80;14.80;;;16.60;61.00;;;;;;2271113;59;22207;-76
2022/05/07 02:22:44;;;;;;;23.35;14.63;;;16.60;61.20;;;;;;2271579;59;21051;-77
2022/05/07 02:25:12;;;;;;;26.02;15.27;;;16.50;61.20;;;;;;2271173;59;21070;-75
2022/05/07 02:27:41;;;;;;;26.23;15.18;;;16.50;61.20;;;;;;2271078;59;21552;-75
2022/05/07 02:30:10;;;;;;;28.45;17.45;;;16.50;61.30;;;;;;2501561;55;21131;-76
2022/05/07 02:32:37;;;;;;;23.38;13.75;;;16.50;61.40;;;;;;2501187;55;21102;-76
2022/05/07 02:35:06;;;;;;;26.40;14.45;;;16.40;61.40;;;;;;2501979;55;21095;-76
2022/05/07 02:37:33;;;;;;;26.45;15.20;;;16.40;61.50;;;;;;2501660;55;21054;-75
2022/05/07 02:40:00;;;;;;;27.60;16.15;;;16.40;62.40;;;;;;2271257;59;21118;-76
2022/05/07 02:42:33;;;;;;;23.65;15.18;;;16.40;61.50;;;;;;2501923;55;21039;-76
2022/05/07 02:45:01;;;;;;;23.85;14.80;;;16.40;61.30;;;;;;2271598;59;21143;-74
2022/05/07 02:47:29;;;;;;;21.98;14.25;;;16.40;61.00;;;;;;2270211;59;21504;-76
2022/05/07 02:49:56;;;;;;;23.90;13.68;;;16.40;60.80;;;;;;2501823;55;21070;-77
2022/05/07 02:52:23;;;;;;;25.52;15.00;;;16.40;61.00;;;;;;2502156;55;21068;-76
2022/05/07 02:54:51;;;;;;;22.83;13.30;;;16.40;60.80;;;;;;2271358;59;21142;-76
2022/05/07 02:57:18;;;;;;;18.52;11.60;;;16.40;60.80;;;;;;2270957;59;21142;-76
2022/05/07 02:59:45;;;;;;;25.95;15.73;;;16.30;61.10;;;;;;2271380;59;21589;-76
2022/05/07 03:02:12;;;;;;;28.17;15.02;;;16.30;61.20;;;;;;2502239;55;21144;-76
2022/05/07 03:04:40;;;;;;;32.10;16.55;;;16.30;61.10;;;;;;2270097;59;21138;-76
2022/05/07 03:07:07;;;;;;;24.25;14.73;;;16.30;61.20;;;;;;2501614;55;21134;-76
2022/05/07 03:09:34;;;;;;;21.77;13.05;;;16.30;61.40;;;;;;2271264;59;21138;-74
2022/05/07 03:12:02;;;;;;;19.85;12.65;;;16.30;61.60;;;;;;2502118;55;21616;-76
2022/05/07 03:14:29;;;;;;;23.70;13.10;;;16.30;61.80;;;;;;2271111;59;21059;-75
2022/05/07 03:16:56;;;;;;;19.92;11.93;;;16.30;62.00;;;;;;2270348;59;21129;-76
2022/05/07 03:19:24;;;;;;;18.20;12.32;;;16.20;61.90;;;;;;2270614;59;21075;-76
2022/05/07 03:21:51;;;;;;;19.50;11.65;;;16.30;62.00;;;;;;2501554;55;21075;-76
2022/05/07 03:24:18;;;;;;;24.98;13.55;;;16.30;62.30;;;;;;2271100;59;21205;-76
2022/05/07 03:26:45;;;;;;;22.98;12.65;;;16.30;62.20;;;;;;2270706;59;21142;-76
2022/05/07 03:29:13;;;;;;;19.92;13.00;;;16.20;62.20;;;;;;2271144;59;21051;-76
2022/05/07 03:31:40;;;;;;;25.70;13.75;;;16.20;62.30;;;;;;2270980;59;21130;-75
2022/05/07 03:34:08;;;;;;;22.48;14.25;;;16.20;62.40;;;;;;2270096;59;21122;-76
2022/05/07 03:36:36;;;;;;;25.08;14.32;;;16.20;62.40;;;;;;2270293;59;21154;-76
2022/05/07 03:39:03;;;;;;;24.15;14.38;;;16.30;62.50;;;;;;2271259;59;21051;-76
2022/05/07 03:41:30;;;;;;;27.13;16.62;;;16.20;62.50;;;;;;2271205;59;21079;-75
2022/05/07 03:43:58;;;;;;;26.90;15.98;;;16.20;62.70;;;;;;2501775;55;21612;-76
2022/05/07 03:46:25;;;;;;;29.55;17.08;;;16.20;62.80;;;;;;2270590;59;21071;-76
2022/05/07 03:48:53;;;;;;;28.65;16.75;;;16.20;63.70;;;;;;2270980;59;21135;-74
2022/05/07 03:51:20;;;;;;;28.33;17.40;;;16.20;62.80;;;;;;2270638;59;21087;-76
2022/05/07 03:53:47;;;;;;;31.27;16.73;;;16.20;62.80;;;;;;2271449;59;21569;-75
2022/05/07 03:56:15;;;;;;;26.10;16.02;;;16.10;62.90;;;;;;2271017;59;21198;-76
2022/05/07 03:58:42;;;;;;;29.33;16.83;;;16.10;63.10;;;;;;2271084;59;21229;-76
2022/05/07 04:01:10;;;;;;;28.90;17.85;;;16.10;63.00;;;;;;2271256;59;21134;-76
2022/05/07 04:03:37;;;;;;;27.58;15.20;;;16.10;63.00;;;;;;2501999;55;21617;-76
2022/05/07 04:06:04;;;;;;;25.80;15.63;;;16.10;63.10;;;;;;2270593;59;21070;-76
2022/05/07 04:08:32;;;;;;;28.08;16.67;;;16.10;63.30;;;;;;2270668;59;21615;-73
2022/05/07 04:10:59;;;;;;;33.20;19.27;;;16.10;63.30;;;;;;2270618;59;21075;-75
2022/05/07 04:13:26;;;;;;;29.85;17.60;;;16.00;63.60;;;;;;2270691;59;21067;-76
2022/05/07 04:15:54;;;;;;;29.42;18.50;;;16.00;63.60;;;;;;2271170;59;21106;-76
2022/05/07 04:18:21;;;;;;;33.88;18.62;;;16.00;63.80;;;;;;2501930;55;21067;-76
2022/05/07 04:20:48;;;;;;;30.42;17.42;;;16.00;64.00;;;;;;2501337;55;21131;-76
2022/05/07 04:25:51;;;;;;;34.50;22.93;;;16.00;64.10;;;;;;2336485;57;28296;-76
2022/05/07 04:28:18;;;;;;;25.42;15.85;;;15.60;67.00;;;;;;2373154;56;21395;-76
2022/05/07 04:30:45;;;;;;;27.00;17.27;;;15.80;66.00;;;;;;2628871;52;21115;-73
2022/05/07 04:33:12;;;;;;;30.17;17.60;;;15.90;65.40;;;;;;2375414;56;21036;-76
2022/05/07 04:38:16;;;;;;;34.92;19.20;;;16.00;64.90;;;;;;2330540;57;22577;-74
2022/05/07 04:40:43;;;;;;;30.85;18.75;;;16.00;64.90;;;;;;2346830;57;21540;-75
2022/05/07 04:45:39;;;;;;;32.15;18.08;;;16.00;65.00;;;;;;2295012;58;21181;-79
2022/05/07 04:48:07;;;;;;;36.47;19.58;;;16.00;65.10;;;;;;2294701;58;21063;-79
2022/05/07 04:50:35;;;;;;;39.03;21.75;;;16.00;65.20;;;;;;2295641;58;21066;-79
2022/05/07 04:53:02;;;;;;;36.72;21.23;;;15.90;65.10;;;;;;2294962;58;21181;-78
2022/05/07 04:55:30;;;;;;;36.08;20.77;;;15.90;65.30;;;;;;2296063;58;21086;-78
2022/05/07 04:57:57;;;;;;;42.75;23.55;;;16.00;65.30;;;;;;2295112;58;21133;-79
2022/05/07 05:00:24;;;;;;;37.25;21.65;;;16.00;65.40;;;;;;2295544;58;21161;-80
2022/05/07 05:02:51;;;;;;;35.25;18.60;;;16.00;65.40;;;;;;2531076;54;21070;-79
2022/05/07 05:05:19;;;;;;;42.42;21.83;;;16.00;65.60;;;;;;2295022;58;21070;-78
2022/05/07 05:07:46;;;;;;;38.55;22.67;;;16.00;65.70;;;;;;2295235;58;21138;-80
2022/05/07 05:10:14;;;;;;;40.55;23.75;;;16.00;65.60;;;;;;2294136;58;21103;-80
2022/05/07 05:12:41;;;;;;;40.12;22.15;;;16.00;65.80;;;;;;2529902;54;21075;-80
2022/05/07 05:15:11;;;;;;;39.40;21.12;;;16.10;65.70;;;;;;2529429;54;21078;-75
2022/05/07 05:17:38;;;;;;;37.63;22.48;;;16.10;66.00;;;;;;2293722;58;21073;-75
2022/05/07 05:20:07;;;;;;;39.42;23.15;;;16.10;66.30;;;;;;2294452;58;21074;-75
2022/05/07 05:22:34;;;;;;;35.92;23.40;;;16.10;66.30;;;;;;2530053;54;21062;-75
2022/05/07 05:25:05;;;;;;;35.63;20.27;;;16.20;66.60;;;;;;2294418;58;21098;-75
2022/05/07 05:27:32;;;;;;;36.65;23.58;;;16.20;66.60;;;;;;2529355;54;21070;-75
2022/05/07 05:30:00;;;;;;;42.70;24.02;;;16.30;66.40;;;;;;2293169;58;21142;-73
2022/05/07 05:32:27;;;;;;;44.30;23.27;;;16.30;66.40;;;;;;2293613;58;21082;-74
2022/05/07 05:34:54;;;;;;;44.13;25.58;;;16.40;66.40;;;;;;2530581;54;21066;-82
2022/05/07 05:37:22;;;;;;;45.05;26.95;;;16.40;66.40;;;;;;2296399;58;21063;-81
2022/05/07 05:39:49;;;;;;;38.10;22.73;;;16.40;66.10;;;;;;2532369;54;21071;-81
2022/05/07 05:42:17;;;;;;;40.78;23.58;;;16.50;66.40;;;;;;2296013;58;21680;-78
2022/05/07 05:44:44;;;;;;;41.60;22.70;;;16.60;66.00;;;;;;2295802;58;21058;-81
2022/05/07 05:47:11;;;;;;;36.13;20.62;;;16.60;66.10;;;;;;2532113;54;21046;-81
2022/05/07 05:49:38;;;;;;;36.33;20.77;;;16.60;65.70;;;;;;2531260;54;21058;-80
2022/05/07 05:52:07;;;;;;;34.50;20.52;;;16.70;65.60;;;;;;2531447;55;21101;-80
2022/05/07 05:54:35;;;;;;;35.30;19.23;;;16.70;65.40;;;;;;2531456;55;21209;-80
2022/05/07 05:57:03;;;;;;;35.13;19.77;;;16.70;65.50;;;;;;2531063;55;21063;-82
2022/05/07 05:59:31;;;;;;;32.42;19.90;;;16.80;65.00;;;;;;2295696;58;21712;-80
2022/05/07 06:01:58;;;;;;;38.10;20.92;;;16.80;65.20;;;;;;2295417;58;21103;-81
2022/05/07 06:04:25;;;;;;;33.17;19.20;;;16.90;64.90;;;;;;2530978;55;21619;-81
2022/05/07 06:06:52;;;;;;;32.70;18.60;;;16.90;64.70;;;;;;2531174;55;21644;-82
2022/05/07 06:09:21;;;;;;;31.73;16.80;;;17.00;64.40;;;;;;2294891;58;21078;-81
2022/05/07 06:11:48;;;;;;;30.88;18.90;;;17.00;64.40;;;;;;2295627;58;21073;-82
2022/05/07 06:14:15;;;;;;;32.45;17.85;;;17.10;64.40;;;;;;2531229;55;21074;-81
2022/05/07 06:16:42;;;;;;;27.73;16.23;;;17.10;64.20;;;;;;2530860;55;21054;-81
2022/05/07 06:19:09;;;;;;;25.27;16.12;;;17.20;64.10;;;;;;2531456;55;21070;-81
2022/05/07 06:21:37;;;;;;;28.12;16.67;;;17.30;63.40;;;;;;2531021;55;21051;-82
2022/05/07 06:29:37;;;;;;;26.27;14.32;;;17.40;62.60;;;;;;2295490;58;21057;-81
2022/05/07 06:32:05;;;;;;;20.65;12.52;;;17.40;61.80;;;;;;2295391;58;21074;-82
2022/05/07 06:34:32;;;;;;;21.58;12.57;;;17.40;61.70;;;;;;2295458;58;21082;-81
2022/05/07 06:37:01;;;;;;;26.20;13.38;;;17.40;61.60;;;;;;2295398;58;21073;-81
2022/05/07 06:39:28;;;;;;;24.00;12.10;;;17.40;61.30;;;;;;2530615;55;21047;-81
2022/05/07 06:41:55;;;;;;;19.75;12.13;;;17.50;61.70;;;;;;2531263;55;21059;-81
2022/05/07 06:44:22;;;;;;;21.58;12.30;;;17.50;61.40;;;;;;2295344;58;21090;-81
2022/05/07 06:46:50;;;;;;;23.23;11.82;;;17.60;61.40;;;;;;2530857;55;21098;-81
2022/05/07 06:49:18;;;;;;;18.27;10.65;;;17.70;61.20;;;;;;2295274;58;21126;-81
2022/05/07 06:51:46;;;;;;;18.23;11.05;;;17.80;60.60;;;;;;2295533;58;21165;-81
2022/05/07 06:54:13;;;;;;;17.05;10.60;;;17.90;60.20;;;;;;2530903;55;21086;-81
2022/05/07 06:56:40;;;;;;;16.02;9.77;;;17.90;59.80;;;;;;2295196;58;21213;-82
2022/05/07 06:59:09;;;;;;;16.23;9.32;;;18.00;59.80;;;;;;2530843;55;21559;-80
2022/05/07 07:01:37;;;;;;;17.90;10.05;;;18.10;59.70;;;;;;2530100;55;21067;-80
2022/05/07 07:04:04;;;;;;;12.82;8.07;;;18.10;59.50;;;;;;2294603;58;21276;-81
2022/05/07 07:06:32;;;;;;;14.25;8.93;;;18.10;59.20;;;;;;2295416;58;21082;-81
2022/05/07 07:08:59;;;;;;;14.95;9.48;;;18.20;59.20;;;;;;2295297;58;21070;-81
2022/05/07 07:11:27;;;;;;;17.55;8.55;;;18.30;59.10;;;;;;2295339;58;21066;-81
2022/05/07 07:13:55;;;;;;;12.30;7.00;;;18.30;59.00;;;;;;2295006;58;21205;-80
2022/05/07 07:16:22;;;;;;;11.95;7.22;;;18.40;59.60;;;;;;2295094;58;21105;-81
2022/05/07 07:18:49;;;;;;;12.25;6.65;;;18.40;58.80;;;;;;2531099;55;21063;-81
2022/05/07 07:21:16;;;;;;;10.48;5.62;;;18.50;58.20;;;;;;2295150;58;21122;-81
2022/05/07 07:23:43;;;;;;;11.25;5.35;;;18.60;57.90;;;;;;2295591;58;21154;-82
2022/05/07 07:26:10;;;;;;;9.48;5.68;;;18.60;57.70;;;;;;2295168;58;21074;-81
2022/05/07 07:28:38;;;;;;;11.38;6.35;;;18.60;57.20;;;;;;2295478;58;21173;-81
2022/05/07 07:31:05;;;;;;;10.75;5.90;;;18.70;57.10;;;;;;2531042;55;21086;-81
2022/05/07 07:33:32;;;;;;;12.48;5.22;;;18.70;56.80;;;;;;2295644;58;21110;-80
2022/05/07 07:35:59;;;;;;;10.93;6.70;;;18.70;57.00;;;;;;2530921;55;21559;-81
2022/05/07 07:38:27;;;;;;;16.87;6.80;;;18.80;56.80;;;;;;2531255;55;21074;-80
2022/05/07 07:40:54;;;;;;;11.45;6.28;;;18.80;56.90;;;;;;2295339;58;21070;-81
2022/05/07 07:43:21;;;;;;;11.77;5.45;;;18.80;57.40;;;;;;2294844;58;21161;-81
2022/05/07 07:48:34;;;;;;;9.13;5.45;;;19.00;56.70;;;;;;2295610;58;21125;-81
2022/05/07 07:51:01;;;;;;;9.43;4.53;;;19.00;56.20;;;;;;2295712;58;21058;-80
2022/05/07 07:53:28;;;;;;;9.43;5.55;;;19.10;56.80;;;;;;2295693;58;21078;-80
2022/05/07 07:55:56;;;;;;;9.48;5.75;;;19.20;56.20;;;;;;2294678;58;21074;-80
2022/05/07 07:58:23;;;;;;;9.43;6.18;;;19.20;55.30;;;;;;2294516;58;21648;-81
2022/05/07 08:00:50;;;;;;;10.60;6.65;;;19.30;56.10;;;;;;2295442;58;21133;-80
2022/05/07 08:03:19;;;;;;;9.13;5.43;;;19.30;55.60;;;;;;2531350;55;21416;-79
2022/05/07 08:05:49;;;;;;;9.52;5.57;;;19.30;55.50;;;;;;2295046;58;21114;-79
2022/05/07 08:13:50;;;;;;;13.13;6.80;;;19.50;55.10;;;;;;2295324;58;21709;-81
2022/05/07 08:16:18;;;;;;;11.12;5.93;;;19.50;54.90;;;;;;2295364;58;21154;-82
2022/05/07 08:18:45;;;;;;;14.50;5.30;;;19.50;55.50;;;;;;2295598;58;21142;-81
2022/05/07 08:21:13;;;;;;;11.93;5.53;;;19.50;55.50;;;;;;2295136;58;21050;-81
2022/05/07 08:23:43;;;;;;;10.13;5.62;;;19.60;55.10;;;;;;2530964;55;21062;-81
2022/05/07 08:26:10;;;;;;;13.13;5.75;;;19.60;54.80;;;;;;2530692;55;21078;-81
2022/05/07 08:28:39;;;;;;;13.18;5.72;;;19.60;54.70;;;;;;2295761;58;21617;-80
2022/05/07 08:31:07;;;;;;;11.63;4.50;;;19.70;54.90;;;;;;2295097;58;21134;-81
2022/05/07 08:33:35;;;;;;;7.10;4.85;;;19.70;54.50;;;;;;2295688;58;21129;-81
2022/05/07 08:36:04;;;;;;;5.78;4.20;;;19.80;54.40;;;;;;2530870;55;21130;-81
2022/05/07 08:38:31;;;;;;;11.35;5.05;;;19.80;54.30;;;;;;2531251;55;21055;-81
2022/05/07 08:41:00;;;;;;;9.68;5.55;;;19.90;53.50;;;;;;2530917;55;21407;-81
2022/05/07 08:43:31;;;;;;;5.57;4.12;;;19.90;53.70;;;;;;2295388;58;21062;-81
2022/05/07 08:45:59;;;;;;;7.47;4.37;;;19.90;53.70;;;;;;2295104;58;21157;-81
2022/05/07 08:48:27;;;;;;;9.23;5.12;;;19.90;54.20;;;;;;2295582;58;21106;-81
2022/05/07 08:53:30;;;;;;;7.43;4.93;;;20.00;53.70;;;;;;2309600;57;27878;-76
2022/05/07 08:55:57;;;;;;;6.28;4.43;;;20.00;53.30;;;;;;2347231;57;21420;-76
2022/05/07 08:58:24;;;;;;;9.85;5.32;;;20.10;53.60;;;;;;2346467;57;21569;-76
2022/05/07 09:00:52;;;;;;;8.35;5.15;;;20.10;53.00;;;;;;2592891;53;21099;-74
2022/05/07 09:03:19;;;;;;;5.93;4.10;;;20.10;52.70;;;;;;2346631;57;21179;-76
2022/05/07 09:05:46;;;;;;;8.50;4.30;;;20.20;53.00;;;;;;2346172;57;21578;-75
2022/05/07 09:08:13;;;;;;;10.85;5.47;;;20.20;53.30;;;;;;2594108;53;21056;-76
2022/05/07 09:10:42;;;;;;;11.12;6.43;;;20.30;52.90;;;;;;2346694;57;21182;-76
2022/05/07 09:13:14;;;;;;;10.25;6.25;;;20.40;52.90;;;;;;2346386;57;21602;-76
2022/05/07 09:15:52;;;;;;;17.33;7.03;;;20.40;52.90;;;;;;2346149;57;21048;-76
2022/05/07 09:18:22;;;;;;;10.02;5.82;;;20.40;53.30;;;;;;2346751;57;21100;-76
2022/05/07 09:21:16;;;;;;;9.85;5.85;;;20.40;52.60;;;;;;2594335;53;21100;-76
2022/05/07 09:23:45;;;;;;;14.25;7.55;;;20.50;52.60;;;;;;2346998;57;21041;-76
2022/05/07 09:26:23;;;;;;;13.40;7.93;;;20.50;52.50;;;;;;2593414;53;21160;-77
2022/05/07 09:28:50;;;;;;;13.20;7.50;;;20.30;52.50;;;;;;2593731;53;21021;-76
2022/05/07 09:31:27;;;;;;;10.35;7.12;;;20.30;53.40;;;;;;2593972;53;21084;-75
2022/05/07 09:33:55;;;;;;;10.73;5.68;;;20.40;53.80;;;;;;2346646;57;21123;-76
2022/05/07 09:36:24;;;;;;;10.32;7.05;;;20.50;53.20;;;;;;2593661;53;21044;-76
2022/05/07 09:39:00;;;;;;;9.63;5.40;;;20.60;52.50;;;;;;2346627;57;21096;-76
2022/05/07 09:41:28;;;;;;;11.55;6.12;;;20.60;52.00;;;;;;2593939;53;21016;-76
2022/05/07 09:43:55;;;;;;;12.10;6.50;;;20.60;52.20;;;;;;2346964;57;21108;-74
2022/05/07 09:46:22;;;;;;;11.18;6.32;;;20.60;52.20;;;;;;2593338;52;21389;-74
2022/05/07 09:48:51;;;;;;;14.82;8.25;;;20.60;52.10;;;;;;2346734;57;21606;-77
2022/05/07 09:51:20;;;;;;;12.05;6.78;;;20.60;52.30;;;;;;2593721;53;21060;-75
2022/05/07 09:59:20;;;;;;;11.10;7.03;;;20.70;51.80;;;;;;2346835;57;21072;-76
2022/05/07 10:02:04;;;;;;;11.15;6.20;;;20.70;52.50;;;;;;2346474;57;21045;-75
2022/05/07 10:04:44;;;;;;;11.10;6.93;;;20.70;52.60;;;;;;2345754;57;21178;-75
2022/05/07 10:07:34;;;;;;;8.52;4.95;;;20.70;52.30;;;;;;2345420;57;21641;-76
2022/05/07 10:10:24;;;;;;;8.52;5.60;;;20.80;52.20;;;;;;2345988;57;21021;-76
2022/05/07 10:12:55;;;;;;;12.18;7.05;;;20.80;51.60;;;;;;2593018;53;21036;-76
2022/05/07 10:15:24;;;;;;;14.52;7.25;;;20.80;51.60;;;;;;2345638;57;21119;-75
2022/05/07 10:18:03;;;;;;;12.77;7.53;;;20.80;51.70;;;;;;2345186;57;21116;-77
2022/05/07 10:20:41;;;;;;;18.58;7.50;;;20.80;51.70;;;;;;2345775;57;21036;-76
2022/05/07 10:23:09;;;;;;;12.07;7.82;;;20.90;51.80;;;;;;2345882;57;21029;-76
2022/05/07 10:25:37;;;;;;;13.00;8.45;;;20.90;51.40;;;;;;2345665;57;21040;-76
2022/05/07 10:28:12;;;;;;;14.95;9.35;;;20.90;51.60;;;;;;2345928;57;21040;-76
2022/05/07 10:30:47;;;;;;;15.15;8.57;;;20.90;51.90;;;;;;2593359;53;21056;-75
2022/05/07 10:33:15;;;;;;;13.65;8.68;;;20.90;52.30;;;;;;2345722;57;21163;-76
2022/05/07 10:35:44;;;;;;;14.30;8.02;;;20.90;52.10;;;;;;2344687;57;21123;-76
2022/05/07 10:38:14;;;;;;;14.48;9.38;;;21.00;51.80;;;;;;2345406;57;21044;-77
2022/05/07 10:40:51;;;;;;;12.98;8.85;;;21.00;51.60;;;;;;2592999;52;21044;-76
2022/05/07 10:43:29;;;;;;;13.93;8.93;;;21.10;52.00;;;;;;2345459;57;21061;-75
2022/05/07 10:45:59;;;;;;;12.18;8.60;;;21.10;51.90;;;;;;2592417;53;21044;-76
2022/05/07 10:48:27;;;;;;;16.75;9.30;;;21.10;51.80;;;;;;2592640;53;21115;-76
2022/05/07 10:50:59;;;;;;;17.45;8.50;;;21.20;51.90;;;;;;2345867;57;21147;-77
2022/05/07 10:53:36;;;;;;;19.33;9.63;;;21.20;51.90;;;;;;2345760;57;21047;-77
2022/05/07 10:56:04;;;;;;;13.13;7.60;;;21.30;51.60;;;;;;2345507;57;21055;-77
2022/05/07 10:58:31;;;;;;;12.60;7.85;;;21.30;51.90;;;;;;2345909;57;21598;-74
2022/05/07 11:00:59;;;;;;;17.67;9.88;;;21.30;51.20;;;;;;2345758;57;21627;-76
2022/05/07 11:03:27;;;;;;;16.08;8.77;;;21.40;50.70;;;;;;2345790;57;21037;-76
2022/05/07 11:06:01;;;;;;;11.02;6.35;;;21.40;50.80;;;;;;2345422;57;21036;-76
2022/05/07 11:08:30;;;;;;;;;;;21.40;50.90;;;;;;2596345;53;21040;-76
2022/05/07 11:11:08;;;;;;;12.05;6.72;;;21.40;51.10;;;;;;2345814;57;20111;-77
2022/05/07 11:13:44;;;;;;;13.00;7.07;;;21.40;51.40;;;;;;2592366;53;21036;-76
2022/05/07 11:16:11;;;;;;;10.63;6.25;;;21.30;51.50;;;;;;2345278;57;21024;-76
2022/05/07 11:18:41;;;;;;;9.70;6.10;;;21.30;51.00;;;;;;2345596;57;21136;-75
2022/05/07 11:21:09;;;;;;;10.77;5.10;;;21.20;50.50;;;;;;2346010;57;21119;-76
2022/05/07 11:23:40;;;;;;;7.87;5.00;;;21.20;50.80;;;;;;2345852;57;21572;-77
2022/05/07 11:26:15;;;;;;;11.23;5.60;;;21.20;50.30;;;;;;2345195;57;21065;-76
2022/05/07 11:28:44;;;;;;;11.88;6.72;;;21.20;50.40;;;;;;2592842;53;21052;-74
2022/05/07 11:31:15;;;;;;;9.50;5.80;;;21.10;50.50;;;;;;2592593;53;21052;-76
2022/05/07 11:33:42;;;;;;;11.07;5.43;;;21.00;50.60;;;;;;2346221;57;21115;-77
2022/05/07 11:36:10;;;;;;;10.77;5.60;;;21.00;51.10;;;;;;2345456;57;21112;-76
2022/05/07 11:38:38;;;;;;;7.40;4.45;;;21.00;51.10;;;;;;2592944;53;21048;-77
2022/05/07 11:41:15;;;;;;;12.63;5.32;;;21.00;51.30;;;;;;2593065;52;21152;-75
2022/05/07 11:46:46;;;;;;;9.82;5.00;;;21.10;50.50;;;;;;2345394;57;20996;-77
2022/05/07 11:49:13;;;;;;;11.10;5.03;;;21.10;50.90;;;;;;2345486;57;21135;-77
2022/05/07 11:51:41;;;;;;;8.50;6.18;;;21.10;51.30;;;;;;2345088;57;21049;-75
2022/05/07 11:54:11;;;;;;;8.65;4.65;;;21.10;51.30;;;;;;2345559;57;21020;-76
2022/05/07 11:56:48;;;;;;;12.02;4.95;;;21.10;51.50;;;;;;2345539;57;21127;-75
2022/05/07 11:59:16;;;;;;;8.02;4.97;;;21.10;51.00;;;;;;2592914;52;21575;-76
2022/05/07 12:01:48;;;;;;;6.05;4.43;;;21.10;50.70;;;;;;2345905;57;21135;-75
2022/05/07 12:04:16;;;;;;;8.05;4.82;;;21.00;51.10;;;;;;2592994;53;21531;-76
2022/05/07 12:06:54;;;;;;;12.75;4.95;;;21.10;51.30;;;;;;2592292;53;21053;-75
2022/05/07 12:09:22;;;;;;;11.85;5.25;;;21.10;51.90;;;;;;2344998;57;21053;-76
2022/05/07 12:11:49;;;;;;;8.75;4.62;;;21.10;51.30;;;;;;2345704;57;21044;-76
2022/05/07 12:14:16;;;;;;;8.43;5.22;;;21.10;51.20;;;;;;2345743;57;21565;-76
2022/05/07 12:19:31;;;;;;;9.15;5.78;;;21.00;52.10;;;;;;2345691;57;21035;-77
2022/05/07 12:30:15;;;;;;;8.10;4.30;;;20.70;52.50;;;;;;2345610;57;21377;-77
2022/05/07 12:32:44;;;;;;;5.20;3.58;;;20.60;52.60;;;;;;2345854;57;21049;-75
2022/05/07 12:35:12;;;;;;;6.72;3.95;;;20.60;52.80;;;;;;2345521;57;21056;-77
2022/05/07 12:37:40;;;;;;;8.98;4.70;;;20.60;53.20;;;;;;2345467;57;21071;-77
2022/05/07 12:40:08;;;;;;;8.40;4.45;;;20.60;52.40;;;;;;2345852;57;21060;-75
2022/05/07 12:42:36;;;;;;;9.50;3.53;;;20.60;53.00;;;;;;2345792;57;21124;-76
2022/05/07 12:45:04;;;;;;;6.78;3.25;;;20.60;52.20;;;;;;2592741;53;21043;-77
2022/05/07 12:47:31;;;;;;;5.85;2.97;;;20.60;51.70;;;;;;2592131;53;21052;-75
2022/05/07 12:49:59;;;;;;;5.05;2.65;;;20.70;51.70;;;;;;2592543;53;21132;-75
2022/05/07 12:52:26;;;;;;;5.55;2.87;;;20.80;51.60;;;;;;2345277;57;21127;-77
2022/05/07 12:54:53;;;;;;;5.05;2.58;;;20.80;51.40;;;;;;2345322;57;21072;-76
2022/05/07 12:57:20;;;;;;;8.25;3.08;;;20.80;50.50;;;;;;2345060;57;21097;-75
2022/05/07 12:59:48;;;;;;;4.93;2.67;;;20.80;50.60;;;;;;2345570;57;21100;-75
2022/05/07 13:02:15;;;;;;;3.60;2.70;;;20.80;51.20;;;;;;2345393;57;21040;-75
2022/05/07 13:04:42;;;;;;;10.18;2.55;;;20.90;51.20;;;;;;2345438;57;21120;-75
2022/05/07 13:07:10;;;;;;;3.95;1.80;;;20.90;51.10;;;;;;2345039;57;21053;-75
2022/05/07 13:09:38;;;;;;;5.68;2.20;;;20.90;50.90;;;;;;2344453;56;21211;-75
2022/05/07 13:12:07;;;;;;;3.20;2.00;;;20.90;50.10;;;;;;2592537;53;21112;-75
2022/05/07 13:14:35;;;;;;;4.45;1.98;;;20.90;50.40;;;;;;2345873;57;21213;-76
2022/05/07 13:17:04;;;;;;;4.40;1.70;;;20.80;51.00;;;;;;2345442;57;21040;-75
2022/05/07 13:19:31;;;;;;;4.78;1.60;;;20.80;51.40;;;;;;2592655;53;21100;-74
2022/05/07 13:21:58;;;;;;;3.65;1.98;;;20.80;51.40;;;;;;2592451;53;21060;-76
2022/05/07 13:24:25;;;;;;;4.95;2.25;;;20.70;51.40;;;;;;2345684;57;21583;-75
2022/05/07 13:26:53;;;;;;;11.02;2.65;;;20.70;51.80;;;;;;2345158;57;21119;-75
2022/05/07 13:29:20;;;;;;;1.87;1.62;;;20.60;51.40;;;;;;2344321;57;21039;-77
2022/05/07 13:31:48;;;;;;;4.75;1.73;;;20.50;51.50;;;;;;2345537;57;21096;-74
2022/05/07 13:34:15;;;;;;;2.80;1.80;;;20.50;51.10;;;;;;2345120;57;21191;-75